sensor_id;sensor_type;location;lat;lon;timestamp;noise_LAeq;noise_LA_min;noise_LA_max;noise_LA01;noise_LA95
18377;Laerm;9315;52.624;13.544;2023-05-10T00:00:59;54.79;37.15;71.95;;
18377;Laerm;9315;52.624;13.544;2023-05-10T00:03:26;41.41;36.87;47.15;;
18377;Laerm;9315;52.624;13.544;2023-05-10T00:05:54;41.47;37.16;46.35;;
18377;Laerm;9315;52.624;13.544;2023-05-10T00:08:21;40.58;37.07;47.53;;
18377;Laerm;9315;52.624;13.544;2023-05-10T00:10:49;40.66;36.88;45.85;;
18377;Laerm;9315;52.624;13.544;2023-05-10T00:13:16;54.04;36.38;70.47;;
18377;Laerm;9315;52.624;13.544;2023-05-10T00:15:43;57.88;37.00;74.85;;
18377;Laerm;9315;52.624;13.544;2023-05-10T00:18:10;59.80;37.41;78.82;;
18377;Laerm;9315;52.624;13.544;2023-05-10T00:20:37;41.64;37.29;48.34;;
18377;Laerm;9315;52.624;13.544;2023-05-10T00:23:04;41.52;35.82;49.51;;
18377;Laerm;9315;52.624;13.544;2023-05-10T00:25:32;57.77;38.23;76.07;;
18377;Laerm;9315;52.624;13.544;2023-05-10T00:27:59;57.06;37.61;73.11;;
18377;Laerm;9315;52.624;13.544;2023-05-10T00:30:28;41.56;37.80;47.29;;
18377;Laerm;9315;52.624;13.544;2023-05-10T00:32:55;43.25;37.00;57.07;;
18377;Laerm;9315;52.624;13.544;2023-05-10T00:35:22;61.67;36.82;77.41;;
18377;Laerm;9315;52.624;13.544;2023-05-10T00:37:49;41.50;36.28;48.54;;
18377;Laerm;9315;52.624;13.544;2023-05-10T00:40:16;61.03;38.35;78.43;;
18377;Laerm;9315;52.624;13.544;2023-05-10T00:42:44;40.95;37.02;48.68;;
18377;Laerm;9315;52.624;13.544;2023-05-10T00:45:11;58.66;37.26;79.22;;
18377;Laerm;9315;52.624;13.544;2023-05-10T00:47:39;58.11;36.26;75.73;;
18377;Laerm;9315;52.624;13.544;2023-05-10T00:50:07;59.56;37.24;75.72;;
18377;Laerm;9315;52.624;13.544;2023-05-10T00:52:35;40.26;36.30;45.44;;
18377;Laerm;9315;52.624;13.544;2023-05-10T00:55:03;55.00;38.27;72.99;;
18377;Laerm;9315;52.624;13.544;2023-05-10T00:57:31;42.46;37.27;54.97;;
18377;Laerm;9315;52.624;13.544;2023-05-10T00:59:59;60.72;37.32;81.21;;
18377;Laerm;9315;52.624;13.544;2023-05-10T01:02:26;49.92;37.49;64.51;;
18377;Laerm;9315;52.624;13.544;2023-05-10T01:04:54;40.68;36.89;46.11;;
18377;Laerm;9315;52.624;13.544;2023-05-10T01:07:22;54.19;37.95;71.15;;
18377;Laerm;9315;52.624;13.544;2023-05-10T01:09:49;40.64;37.16;57.26;;
18377;Laerm;9315;52.624;13.544;2023-05-10T01:12:16;40.81;37.26;44.62;;
18377;Laerm;9315;52.624;13.544;2023-05-10T01:14:43;51.90;37.67;68.10;;
18377;Laerm;9315;52.624;13.544;2023-05-10T01:17:11;54.61;37.29;69.43;;
18377;Laerm;9315;52.624;13.544;2023-05-10T01:19:39;51.88;36.98;68.80;;
18377;Laerm;9315;52.624;13.544;2023-05-10T01:23:03;60.83;37.88;75.50;;
18377;Laerm;9315;52.624;13.544;2023-05-10T01:39:08;56.88;39.89;71.90;;
18377;Laerm;9315;52.624;13.544;2023-05-10T01:42:10;53.79;38.47;70.60;;
18377;Laerm;9315;52.624;13.544;2023-05-10T01:48:10;61.09;40.44;77.70;;
18377;Laerm;9315;52.624;13.544;2023-05-10T01:50:43;58.18;38.61;75.89;;
18377;Laerm;9315;52.624;13.544;2023-05-10T01:53:13;57.15;39.47;72.23;;
18377;Laerm;9315;52.624;13.544;2023-05-10T01:55:53;55.72;39.37;73.12;;
18377;Laerm;9315;52.624;13.544;2023-05-10T01:58:31;64.20;40.27;83.11;;
18377;Laerm;9315;52.624;13.544;2023-05-10T02:01:03;55.14;40.31;73.39;;
18377;Laerm;9315;52.624;13.544;2023-05-10T02:03:31;56.39;38.96;74.59;;
18377;Laerm;9315;52.624;13.544;2023-05-10T02:05:59;60.41;40.53;79.10;;
18377;Laerm;9315;52.624;13.544;2023-05-10T02:08:26;57.46;39.70;77.83;;
18377;Laerm;9315;52.624;13.544;2023-05-10T02:10:56;58.60;41.44;72.96;;
18377;Laerm;9315;52.624;13.544;2023-05-10T02:13:25;64.29;44.01;78.27;;
18377;Laerm;9315;52.624;13.544;2023-05-10T02:15:54;64.69;42.34;77.00;;
18377;Laerm;9315;52.624;13.544;2023-05-10T02:18:22;58.98;41.24;73.77;;
18377;Laerm;9315;52.624;13.544;2023-05-10T02:20:51;58.14;41.88;71.80;;
18377;Laerm;9315;52.624;13.544;2023-05-10T02:23:20;59.47;41.65;75.02;;
18377;Laerm;9315;52.624;13.544;2023-05-10T02:25:52;59.77;41.14;75.47;;
18377;Laerm;9315;52.624;13.544;2023-05-10T02:28:23;61.59;42.38;76.61;;
18377;Laerm;9315;52.624;13.544;2023-05-10T02:30:51;63.22;43.17;75.76;;
18377;Laerm;9315;52.624;13.544;2023-05-10T02:33:21;63.44;42.60;77.28;;
18377;Laerm;9315;52.624;13.544;2023-05-10T02:35:50;62.36;42.71;76.22;;
18377;Laerm;9315;52.624;13.544;2023-05-10T02:38:20;62.19;44.25;74.07;;
18377;Laerm;9315;52.624;13.544;2023-05-10T02:40:49;61.42;41.84;74.56;;
18377;Laerm;9315;52.624;13.544;2023-05-10T02:43:18;58.72;42.54;77.24;;
18377;Laerm;9315;52.624;13.544;2023-05-10T02:45:50;59.45;42.34;73.37;;
18377;Laerm;9315;52.624;13.544;2023-05-10T02:48:17;64.09;44.36;78.21;;
18377;Laerm;9315;52.624;13.544;2023-05-10T02:50:45;62.53;43.28;74.94;;
18377;Laerm;9315;52.624;13.544;2023-05-10T02:53:33;61.44;41.93;78.66;;
18377;Laerm;9315;52.624;13.544;2023-05-10T02:56:08;60.44;42.13;74.70;;
18377;Laerm;9315;52.624;13.544;2023-05-10T02:58:37;65.34;43.14;79.81;;
18377;Laerm;9315;52.624;13.544;2023-05-10T03:01:04;64.13;43.85;79.64;;
18377;Laerm;9315;52.624;13.544;2023-05-10T03:03:33;65.18;43.32;76.99;;
18377;Laerm;9315;52.624;13.544;2023-05-10T03:06:00;67.11;44.18;77.54;;
18377;Laerm;9315;52.624;13.544;2023-05-10T03:08:28;65.52;44.18;77.97;;
18377;Laerm;9315;52.624;13.544;2023-05-10T03:11:37;64.65;44.64;81.29;;
18377;Laerm;9315;52.624;13.544;2023-05-10T03:17:55;66.64;45.50;78.70;;
18377;Laerm;9315;52.624;13.544;2023-05-10T03:20:30;65.47;45.12;75.90;;
18377;Laerm;9315;52.624;13.544;2023-05-10T03:25:56;64.30;45.72;75.09;;
18377;Laerm;9315;52.624;13.544;2023-05-10T03:28:25;66.32;46.29;74.34;;
18377;Laerm;9315;52.624;13.544;2023-05-10T03:30:54;65.21;45.98;79.79;;
18377;Laerm;9315;52.624;13.544;2023-05-10T03:33:22;67.99;46.13;80.51;;
18377;Laerm;9315;52.624;13.544;2023-05-10T03:35:49;66.85;47.57;79.28;;
18377;Laerm;9315;52.624;13.544;2023-05-10T03:38:16;67.59;48.08;77.87;;
18377;Laerm;9315;52.624;13.544;2023-05-10T03:40:43;68.27;48.12;82.98;;
18377;Laerm;9315;52.624;13.544;2023-05-10T03:43:10;65.38;46.09;74.34;;
18377;Laerm;9315;52.624;13.544;2023-05-10T03:45:37;66.13;46.81;79.45;;
18377;Laerm;9315;52.624;13.544;2023-05-10T03:48:08;67.43;46.44;79.44;;
18377;Laerm;9315;52.624;13.544;2023-05-10T03:50:35;68.36;47.66;78.93;;
18377;Laerm;9315;52.624;13.544;2023-05-10T03:53:02;66.75;48.02;76.98;;
18377;Laerm;9315;52.624;13.544;2023-05-10T03:55:29;67.75;46.53;80.17;;
18377;Laerm;9315;52.624;13.544;2023-05-10T03:57:57;66.70;45.91;79.83;;
18377;Laerm;9315;52.624;13.544;2023-05-10T04:00:25;66.33;47.13;77.03;;
18377;Laerm;9315;52.624;13.544;2023-05-10T04:02:52;66.88;46.25;76.81;;
18377;Laerm;9315;52.624;13.544;2023-05-10T04:05:19;68.17;47.03;79.05;;
18377;Laerm;9315;52.624;13.544;2023-05-10T04:07:47;69.32;47.38;81.76;;
18377;Laerm;9315;52.624;13.544;2023-05-10T04:10:16;66.50;46.11;77.16;;
18377;Laerm;9315;52.624;13.544;2023-05-10T04:12:43;66.79;46.03;75.99;;
18377;Laerm;9315;52.624;13.544;2023-05-10T04:15:13;68.32;48.25;78.33;;
18377;Laerm;9315;52.624;13.544;2023-05-10T04:17:41;69.08;46.93;77.91;;
18377;Laerm;9315;52.624;13.544;2023-05-10T04:20:09;68.93;47.60;78.78;;
18377;Laerm;9315;52.624;13.544;2023-05-10T04:22:36;69.50;50.41;82.51;;
18377;Laerm;9315;52.624;13.544;2023-05-10T04:25:04;68.24;49.05;78.16;;
18377;Laerm;9315;52.624;13.544;2023-05-10T04:27:32;69.59;52.33;81.14;;
18377;Laerm;9315;52.624;13.544;2023-05-10T04:29:59;70.32;48.53;81.11;;
18377;Laerm;9315;52.624;13.544;2023-05-10T04:32:27;69.59;48.35;79.36;;
18377;Laerm;9315;52.624;13.544;2023-05-10T04:34:55;68.71;48.50;78.79;;
18377;Laerm;9315;52.624;13.544;2023-05-10T04:37:22;69.85;47.71;83.28;;
18377;Laerm;9315;52.624;13.544;2023-05-10T04:39:53;69.84;47.14;79.21;;
18377;Laerm;9315;52.624;13.544;2023-05-10T04:42:20;66.77;47.43;74.91;;
18377;Laerm;9315;52.624;13.544;2023-05-10T04:44:47;70.53;47.69;82.26;;
18377;Laerm;9315;52.624;13.544;2023-05-10T04:47:14;68.40;50.86;77.86;;
18377;Laerm;9315;52.624;13.544;2023-05-10T04:49:45;69.61;52.87;80.82;;
18377;Laerm;9315;52.624;13.544;2023-05-10T04:52:13;69.68;49.75;78.13;;
18377;Laerm;9315;52.624;13.544;2023-05-10T04:54:41;67.90;52.44;78.34;;
18377;Laerm;9315;52.624;13.544;2023-05-10T04:57:10;69.07;50.75;79.10;;
18377;Laerm;9315;52.624;13.544;2023-05-10T04:59:37;69.73;46.47;79.71;;
18377;Laerm;9315;52.624;13.544;2023-05-10T05:02:05;69.88;46.70;76.43;;
18377;Laerm;9315;52.624;13.544;2023-05-10T05:04:35;69.40;47.29;80.95;;
18377;Laerm;9315;52.624;13.544;2023-05-10T05:07:02;69.81;46.79;80.36;;
18377;Laerm;9315;52.624;13.544;2023-05-10T05:09:32;69.82;45.90;77.74;;
18377;Laerm;9315;52.624;13.544;2023-05-10T05:11:59;69.70;51.39;82.26;;
18377;Laerm;9315;52.624;13.544;2023-05-10T05:14:27;69.53;47.99;86.28;;
18377;Laerm;9315;52.624;13.544;2023-05-10T05:16:54;69.72;47.54;79.81;;
18377;Laerm;9315;52.624;13.544;2023-05-10T05:19:21;70.95;54.16;81.93;;
18377;Laerm;9315;52.624;13.544;2023-05-10T05:21:49;70.02;47.37;83.35;;
18377;Laerm;9315;52.624;13.544;2023-05-10T05:24:16;68.83;46.87;78.65;;
18377;Laerm;9315;52.624;13.544;2023-05-10T05:26:43;68.67;46.78;80.51;;
18377;Laerm;9315;52.624;13.544;2023-05-10T05:29:10;68.42;46.50;80.09;;
18377;Laerm;9315;52.624;13.544;2023-05-10T05:31:38;70.59;47.54;82.40;;
18377;Laerm;9315;52.624;13.544;2023-05-10T05:34:05;68.40;45.11;76.24;;
18377;Laerm;9315;52.624;13.544;2023-05-10T05:36:36;66.27;44.86;76.81;;
18377;Laerm;9315;52.624;13.544;2023-05-10T05:39:05;69.70;46.23;77.47;;
18377;Laerm;9315;52.624;13.544;2023-05-10T05:41:35;70.82;48.75;84.48;;
18377;Laerm;9315;52.624;13.544;2023-05-10T05:44:02;70.17;49.87;82.03;;
18377;Laerm;9315;52.624;13.544;2023-05-10T05:46:30;67.79;47.46;77.75;;
18377;Laerm;9315;52.624;13.544;2023-05-10T05:48:57;67.70;48.01;77.13;;
18377;Laerm;9315;52.624;13.544;2023-05-10T05:51:24;69.34;49.09;79.44;;
18377;Laerm;9315;52.624;13.544;2023-05-10T05:53:52;68.85;48.36;86.16;;
18377;Laerm;9315;52.624;13.544;2023-05-10T05:56:19;69.31;47.24;87.50;;
18377;Laerm;9315;52.624;13.544;2023-05-10T05:58:51;70.04;47.54;81.50;;
18377;Laerm;9315;52.624;13.544;2023-05-10T06:01:19;68.75;45.63;90.50;;
18377;Laerm;9315;52.624;13.544;2023-05-10T06:03:46;70.33;46.14;93.31;;
18377;Laerm;9315;52.624;13.544;2023-05-10T06:06:14;69.52;45.94;93.35;;
18377;Laerm;9315;52.624;13.544;2023-05-10T06:08:42;69.60;46.93;90.38;;
18377;Laerm;9315;52.624;13.544;2023-05-10T06:11:09;71.81;46.46;91.43;;
18377;Laerm;9315;52.624;13.544;2023-05-10T06:13:36;70.15;48.55;84.22;;
18377;Laerm;9315;52.624;13.544;2023-05-10T06:16:04;69.46;45.79;79.08;;
18377;Laerm;9315;52.624;13.544;2023-05-10T06:18:31;69.89;46.97;86.81;;
18377;Laerm;9315;52.624;13.544;2023-05-10T06:20:58;72.36;47.81;100.68;;
18377;Laerm;9315;52.624;13.544;2023-05-10T06:23:32;73.33;45.67;102.27;;
18377;Laerm;9315;52.624;13.544;2023-05-10T06:25:59;69.40;47.16;85.53;;
18377;Laerm;9315;52.624;13.544;2023-05-10T06:28:26;68.84;48.96;86.99;;
18377;Laerm;9315;52.624;13.544;2023-05-10T06:30:53;69.54;45.84;90.69;;
18377;Laerm;9315;52.624;13.544;2023-05-10T06:33:20;68.50;47.82;84.46;;
18377;Laerm;9315;52.624;13.544;2023-05-10T06:35:47;68.16;46.39;83.61;;
18377;Laerm;9315;52.624;13.544;2023-05-10T06:38:14;68.27;46.39;84.20;;
18377;Laerm;9315;52.624;13.544;2023-05-10T06:40:45;68.92;48.61;82.43;;
18377;Laerm;9315;52.624;13.544;2023-05-10T06:43:12;69.06;48.20;90.20;;
18377;Laerm;9315;52.624;13.544;2023-05-10T06:45:39;68.85;45.63;85.20;;
18377;Laerm;9315;52.624;13.544;2023-05-10T06:48:07;67.94;46.05;78.30;;
18377;Laerm;9315;52.624;13.544;2023-05-10T06:50:35;70.09;47.28;86.67;;
18377;Laerm;9315;52.624;13.544;2023-05-10T06:53:02;68.99;47.18;89.21;;
18377;Laerm;9315;52.624;13.544;2023-05-10T06:55:29;68.41;46.99;80.72;;
18377;Laerm;9315;52.624;13.544;2023-05-10T06:57:58;68.76;47.30;86.12;;
18377;Laerm;9315;52.624;13.544;2023-05-10T07:00:25;68.75;45.59;81.13;;
18377;Laerm;9315;52.624;13.544;2023-05-10T07:02:52;69.86;46.99;85.98;;
18377;Laerm;9315;52.624;13.544;2023-05-10T07:05:19;69.66;45.34;90.66;;
18377;Laerm;9315;52.624;13.544;2023-05-10T07:07:47;69.54;49.33;79.75;;
18377;Laerm;9315;52.624;13.544;2023-05-10T07:10:14;68.07;48.98;78.64;;
18377;Laerm;9315;52.624;13.544;2023-05-10T07:12:42;68.10;47.67;88.54;;
18377;Laerm;9315;52.624;13.544;2023-05-10T07:15:09;66.65;47.95;76.81;;
18377;Laerm;9315;52.624;13.544;2023-05-10T07:17:37;68.73;47.90;91.44;;
18377;Laerm;9315;52.624;13.544;2023-05-10T07:20:08;68.11;48.53;80.94;;
18377;Laerm;9315;52.624;13.544;2023-05-10T07:22:35;67.54;47.96;75.42;;
18377;Laerm;9315;52.624;13.544;2023-05-10T07:25:09;71.14;49.36;84.42;;
18377;Laerm;9315;52.624;13.544;2023-05-10T07:27:36;71.88;49.38;96.26;;
18377;Laerm;9315;52.624;13.544;2023-05-10T07:30:04;68.27;46.86;84.73;;
18377;Laerm;9315;52.624;13.544;2023-05-10T07:32:31;68.95;47.59;82.88;;
18377;Laerm;9315;52.624;13.544;2023-05-10T07:34:59;70.22;48.55;88.87;;
18377;Laerm;9315;52.624;13.544;2023-05-10T07:37:26;68.29;51.96;78.58;;
18377;Laerm;9315;52.624;13.544;2023-05-10T07:39:53;70.24;50.20;82.15;;
18377;Laerm;9315;52.624;13.544;2023-05-10T07:42:21;75.98;47.62;98.18;;
18377;Laerm;9315;52.624;13.544;2023-05-10T07:44:50;70.14;46.29;91.78;;
18377;Laerm;9315;52.624;13.544;2023-05-10T07:47:17;68.57;45.35;81.52;;
18377;Laerm;9315;52.624;13.544;2023-05-10T07:49:45;69.06;47.41;80.84;;
18377;Laerm;9315;52.624;13.544;2023-05-10T07:52:13;68.05;48.19;83.83;;
18377;Laerm;9315;52.624;13.544;2023-05-10T07:54:41;67.26;46.08;80.89;;
18377;Laerm;9315;52.624;13.544;2023-05-10T07:57:08;68.16;46.81;87.86;;
18377;Laerm;9315;52.624;13.544;2023-05-10T07:59:35;68.59;48.66;81.70;;
18377;Laerm;9315;52.624;13.544;2023-05-10T08:02:03;68.95;46.40;77.92;;
18377;Laerm;9315;52.624;13.544;2023-05-10T08:04:31;69.14;48.42;79.64;;
18377;Laerm;9315;52.624;13.544;2023-05-10T08:06:59;69.22;48.43;78.29;;
18377;Laerm;9315;52.624;13.544;2023-05-10T08:09:35;67.59;46.81;81.23;;
18377;Laerm;9315;52.624;13.544;2023-05-10T08:12:05;67.75;45.48;76.74;;
18377;Laerm;9315;52.624;13.544;2023-05-10T08:14:33;68.05;47.49;78.18;;
18377;Laerm;9315;52.624;13.544;2023-05-10T08:17:03;71.00;48.27;81.65;;
18377;Laerm;9315;52.624;13.544;2023-05-10T08:19:30;71.70;46.12;87.13;;
18377;Laerm;9315;52.624;13.544;2023-05-10T08:21:57;67.31;45.30;78.47;;
18377;Laerm;9315;52.624;13.544;2023-05-10T08:24:25;70.15;47.67;78.76;;
18377;Laerm;9315;52.624;13.544;2023-05-10T08:26:52;68.98;46.79;81.05;;
18377;Laerm;9315;52.624;13.544;2023-05-10T08:29:20;70.04;46.11;77.83;;
18377;Laerm;9315;52.624;13.544;2023-05-10T08:31:47;68.45;48.66;80.03;;
18377;Laerm;9315;52.624;13.544;2023-05-10T08:34:14;67.59;47.37;78.08;;
18377;Laerm;9315;52.624;13.544;2023-05-10T08:36:41;67.96;48.26;75.66;;
18377;Laerm;9315;52.624;13.544;2023-05-10T08:39:09;68.98;47.31;76.98;;
18377;Laerm;9315;52.624;13.544;2023-05-10T08:41:59;67.20;46.13;79.20;;
18377;Laerm;9315;52.624;13.544;2023-05-10T08:44:32;69.19;48.10;79.41;;
18377;Laerm;9315;52.624;13.544;2023-05-10T08:47:06;70.01;49.59;85.36;;
18377;Laerm;9315;52.624;13.544;2023-05-10T08:49:35;69.66;49.30;78.26;;
18377;Laerm;9315;52.624;13.544;2023-05-10T08:52:04;69.51;48.28;76.34;;
18377;Laerm;9315;52.624;13.544;2023-05-10T08:54:33;69.97;46.70;83.85;;
18377;Laerm;9315;52.624;13.544;2023-05-10T08:57:01;69.86;50.53;76.80;;
18377;Laerm;9315;52.624;13.544;2023-05-10T08:59:37;66.15;47.35;79.37;;
18377;Laerm;9315;52.624;13.544;2023-05-10T09:02:06;68.41;48.58;77.59;;
18377;Laerm;9315;52.624;13.544;2023-05-10T09:04:35;68.92;50.71;77.52;;
18377;Laerm;9315;52.624;13.544;2023-05-10T09:07:06;70.63;50.49;88.62;;
18377;Laerm;9315;52.624;13.544;2023-05-10T09:09:34;70.16;51.37;77.92;;
18377;Laerm;9315;52.624;13.544;2023-05-10T09:12:02;69.93;55.29;79.90;;
18377;Laerm;9315;52.624;13.544;2023-05-10T09:14:32;68.40;49.42;80.14;;
18377;Laerm;9315;52.624;13.544;2023-05-10T09:17:02;66.61;51.11;75.59;;
18377;Laerm;9315;52.624;13.544;2023-05-10T09:19:29;68.46;51.80;78.65;;
18377;Laerm;9315;52.624;13.544;2023-05-10T09:21:56;68.92;50.37;77.51;;
18377;Laerm;9315;52.624;13.544;2023-05-10T09:24:26;70.00;51.43;83.03;;
18377;Laerm;9315;52.624;13.544;2023-05-10T09:26:54;69.80;48.90;79.91;;
18377;Laerm;9315;52.624;13.544;2023-05-10T09:29:23;69.19;48.01;75.92;;
18377;Laerm;9315;52.624;13.544;2023-05-10T09:31:51;68.48;50.90;77.51;;
18377;Laerm;9315;52.624;13.544;2023-05-10T09:34:31;70.29;49.95;81.44;;
18377;Laerm;9315;52.624;13.544;2023-05-10T09:37:02;68.92;46.96;77.43;;
18377;Laerm;9315;52.624;13.544;2023-05-10T09:39:36;68.79;46.29;80.98;;
18377;Laerm;9315;52.624;13.544;2023-05-10T09:42:09;69.03;48.56;80.35;;
18377;Laerm;9315;52.624;13.544;2023-05-10T09:44:39;78.66;49.20;100.00;;
18377;Laerm;9315;52.624;13.544;2023-05-10T09:47:07;65.19;45.72;75.93;;
18377;Laerm;9315;52.624;13.544;2023-05-10T09:49:35;69.24;46.21;80.17;;
18377;Laerm;9315;52.624;13.544;2023-05-10T09:52:04;66.87;44.26;77.07;;
18377;Laerm;9315;52.624;13.544;2023-05-10T09:54:33;68.95;47.51;79.62;;
18377;Laerm;9315;52.624;13.544;2023-05-10T09:57:02;67.68;47.69;77.99;;
18377;Laerm;9315;52.624;13.544;2023-05-10T09:59:33;69.36;48.03;86.59;;
18377;Laerm;9315;52.624;13.544;2023-05-10T10:02:02;67.29;47.58;79.15;;
18377;Laerm;9315;52.624;13.544;2023-05-10T10:04:29;65.19;44.16;75.72;;
18377;Laerm;9315;52.624;13.544;2023-05-10T10:07:03;68.23;49.41;88.48;;
18377;Laerm;9315;52.624;13.544;2023-05-10T10:09:32;69.77;47.34;81.75;;
18377;Laerm;9315;52.624;13.544;2023-05-10T10:12:01;68.20;48.28;76.42;;
18377;Laerm;9315;52.624;13.544;2023-05-10T10:14:30;68.86;49.34;75.80;;
18377;Laerm;9315;52.624;13.544;2023-05-10T10:16:57;71.37;51.07;80.88;;
18377;Laerm;9315;52.624;13.544;2023-05-10T10:19:35;70.09;51.09;78.74;;
18377;Laerm;9315;52.624;13.544;2023-05-10T10:22:04;69.25;49.96;80.11;;
18377;Laerm;9315;52.624;13.544;2023-05-10T10:24:33;69.00;48.50;78.46;;
18377;Laerm;9315;52.624;13.544;2023-05-10T10:34:08;68.92;47.29;78.60;;
18377;Laerm;9315;52.624;13.544;2023-05-10T10:36:46;70.41;49.97;84.85;;
18377;Laerm;9315;52.624;13.544;2023-05-10T10:39:14;69.54;49.99;79.48;;
18377;Laerm;9315;52.624;13.544;2023-05-10T10:41:53;70.54;47.68;79.06;;
18377;Laerm;9315;52.624;13.544;2023-05-10T10:52:38;69.84;53.48;82.99;;
18377;Laerm;9315;52.624;13.544;2023-05-10T10:57:57;69.60;47.33;81.26;;
18377;Laerm;9315;52.624;13.544;2023-05-10T11:00:40;70.35;46.71;79.97;;
18377;Laerm;9315;52.624;13.544;2023-05-10T11:03:15;70.36;48.25;77.79;;
18377;Laerm;9315;52.624;13.544;2023-05-10T11:05:49;69.34;49.73;76.67;;
18377;Laerm;9315;52.624;13.544;2023-05-10T11:08:31;70.58;49.56;79.36;;
18377;Laerm;9315;52.624;13.544;2023-05-10T11:11:03;72.08;47.89;81.70;;
18377;Laerm;9315;52.624;13.544;2023-05-10T11:13:46;70.97;48.07;85.66;;
18377;Laerm;9315;52.624;13.544;2023-05-10T11:16:23;68.52;45.00;82.57;;
18377;Laerm;9315;52.624;13.544;2023-05-10T11:19:11;66.91;47.50;75.36;;
18377;Laerm;9315;52.624;13.544;2023-05-10T11:22:15;66.19;44.98;78.64;;
18377;Laerm;9315;52.624;13.544;2023-05-10T11:24:57;69.77;46.86;85.50;;
18377;Laerm;9315;52.624;13.544;2023-05-10T11:27:25;71.93;51.72;90.12;;
18377;Laerm;9315;52.624;13.544;2023-05-10T11:29:52;70.67;51.89;77.91;;
18377;Laerm;9315;52.624;13.544;2023-05-10T11:32:20;69.89;45.90;79.22;;
18377;Laerm;9315;52.624;13.544;2023-05-10T11:34:47;70.52;48.93;76.73;;
18377;Laerm;9315;52.624;13.544;2023-05-10T11:37:18;70.72;46.35;80.61;;
18377;Laerm;9315;52.624;13.544;2023-05-10T11:39:47;70.64;46.26;79.33;;
18377;Laerm;9315;52.624;13.544;2023-05-10T11:42:14;67.98;45.84;81.35;;
18377;Laerm;9315;52.624;13.544;2023-05-10T11:44:42;69.76;48.23;84.49;;
18377;Laerm;9315;52.624;13.544;2023-05-10T11:47:12;70.64;46.00;87.88;;
18377;Laerm;9315;52.624;13.544;2023-05-10T11:49:40;69.51;46.54;76.08;;
18377;Laerm;9315;52.624;13.544;2023-05-10T11:52:10;71.66;45.09;79.22;;
18377;Laerm;9315;52.624;13.544;2023-05-10T11:54:45;70.85;45.74;81.75;;
18377;Laerm;9315;52.624;13.544;2023-05-10T11:57:15;70.32;48.04;80.52;;
18377;Laerm;9315;52.624;13.544;2023-05-10T11:59:42;70.65;44.83;80.11;;
18377;Laerm;9315;52.624;13.544;2023-05-10T12:02:10;67.78;49.41;86.81;;
18377;Laerm;9315;52.624;13.544;2023-05-10T12:04:37;66.83;47.25;77.33;;
18377;Laerm;9315;52.624;13.544;2023-05-10T12:07:05;66.97;44.34;86.50;;
18377;Laerm;9315;52.624;13.544;2023-05-10T12:09:32;68.17;44.67;78.47;;
18377;Laerm;9315;52.624;13.544;2023-05-10T12:12:15;68.06;46.93;80.46;;
18377;Laerm;9315;52.624;13.544;2023-05-10T12:14:43;69.14;45.51;80.25;;
18377;Laerm;9315;52.624;13.544;2023-05-10T12:17:13;67.65;44.40;77.14;;
18377;Laerm;9315;52.624;13.544;2023-05-10T12:19:42;68.88;47.04;78.77;;
18377;Laerm;9315;52.624;13.544;2023-05-10T12:22:10;67.62;42.51;84.86;;
18377;Laerm;9315;52.624;13.544;2023-05-10T12:24:37;67.38;42.43;79.77;;
18377;Laerm;9315;52.624;13.544;2023-05-10T12:27:07;69.09;46.59;79.80;;
18377;Laerm;9315;52.624;13.544;2023-05-10T12:29:35;67.82;45.07;78.91;;
18377;Laerm;9315;52.624;13.544;2023-05-10T12:32:02;66.83;46.63;76.93;;
18377;Laerm;9315;52.624;13.544;2023-05-10T12:34:36;67.58;46.48;77.39;;
18377;Laerm;9315;52.624;13.544;2023-05-10T12:37:08;68.36;46.20;78.64;;
18377;Laerm;9315;52.624;13.544;2023-05-10T12:39:44;69.54;45.73;77.69;;
18377;Laerm;9315;52.624;13.544;2023-05-10T12:42:13;68.72;44.02;81.18;;
18377;Laerm;9315;52.624;13.544;2023-05-10T12:44:41;67.70;49.86;77.28;;
18377;Laerm;9315;52.624;13.544;2023-05-10T12:47:08;69.00;45.48;91.13;;
18377;Laerm;9315;52.624;13.544;2023-05-10T12:49:35;67.39;46.27;74.97;;
18377;Laerm;9315;52.624;13.544;2023-05-10T12:52:03;68.10;44.00;77.76;;
18377;Laerm;9315;52.624;13.544;2023-05-10T12:54:30;68.56;44.55;80.99;;
18377;Laerm;9315;52.624;13.544;2023-05-10T12:56:57;69.52;51.72;82.84;;
18377;Laerm;9315;52.624;13.544;2023-05-10T12:59:25;67.97;46.31;75.50;;
18377;Laerm;9315;52.624;13.544;2023-05-10T13:01:52;68.28;45.45;81.68;;
18377;Laerm;9315;52.624;13.544;2023-05-10T13:04:19;68.49;43.58;77.83;;
18377;Laerm;9315;52.624;13.544;2023-05-10T13:06:46;68.50;45.89;79.28;;
18377;Laerm;9315;52.624;13.544;2023-05-10T13:09:13;68.86;45.92;88.61;;
18377;Laerm;9315;52.624;13.544;2023-05-10T13:11:41;67.76;47.44;75.00;;
18377;Laerm;9315;52.624;13.544;2023-05-10T13:14:09;67.41;45.16;76.30;;
18377;Laerm;9315;52.624;13.544;2023-05-10T13:16:36;68.63;45.31;86.92;;
18377;Laerm;9315;52.624;13.544;2023-05-10T13:19:03;68.14;45.31;77.61;;
18377;Laerm;9315;52.624;13.544;2023-05-10T13:21:34;68.41;43.37;77.57;;
18377;Laerm;9315;52.624;13.544;2023-05-10T13:24:03;67.85;44.92;80.16;;
18377;Laerm;9315;52.624;13.544;2023-05-10T13:26:31;68.34;44.99;79.72;;
18377;Laerm;9315;52.624;13.544;2023-05-10T13:28:58;68.96;50.14;78.71;;
18377;Laerm;9315;52.624;13.544;2023-05-10T13:31:25;68.29;45.65;77.90;;
18377;Laerm;9315;52.624;13.544;2023-05-10T13:33:52;67.56;46.74;77.82;;
18377;Laerm;9315;52.624;13.544;2023-05-10T13:36:20;68.13;51.03;76.36;;
18377;Laerm;9315;52.624;13.544;2023-05-10T13:38:47;67.94;46.80;80.64;;
18377;Laerm;9315;52.624;13.544;2023-05-10T13:41:14;68.15;45.89;82.72;;
18377;Laerm;9315;52.624;13.544;2023-05-10T13:43:41;67.90;43.26;78.84;;
18377;Laerm;9315;52.624;13.544;2023-05-10T13:46:09;66.65;44.26;76.54;;
18377;Laerm;9315;52.624;13.544;2023-05-10T13:48:36;70.75;46.64;81.87;;
18377;Laerm;9315;52.624;13.544;2023-05-10T13:51:06;68.32;45.33;79.37;;
18377;Laerm;9315;52.624;13.544;2023-05-10T13:53:33;67.10;46.23;74.75;;
18377;Laerm;9315;52.624;13.544;2023-05-10T13:56:01;67.75;47.26;78.33;;
18377;Laerm;9315;52.624;13.544;2023-05-10T13:58:32;68.09;45.37;76.49;;
18377;Laerm;9315;52.624;13.544;2023-05-10T14:00:59;67.79;48.77;81.18;;
18377;Laerm;9315;52.624;13.544;2023-05-10T14:03:26;67.56;47.63;77.82;;
18377;Laerm;9315;52.624;13.544;2023-05-10T14:05:56;66.27;45.43;75.83;;
18377;Laerm;9315;52.624;13.544;2023-05-10T14:08:23;68.89;46.89;82.35;;
18377;Laerm;9315;52.624;13.544;2023-05-10T14:10:51;68.82;49.63;83.86;;
18377;Laerm;9315;52.624;13.544;2023-05-10T14:13:19;68.92;42.71;78.98;;
18377;Laerm;9315;52.624;13.544;2023-05-10T14:15:46;67.91;47.30;75.73;;
18377;Laerm;9315;52.624;13.544;2023-05-10T14:18:13;68.78;47.30;83.38;;
18377;Laerm;9315;52.624;13.544;2023-05-10T14:20:44;67.33;47.18;76.71;;
18377;Laerm;9315;52.624;13.544;2023-05-10T14:23:11;67.89;47.19;79.74;;
18377;Laerm;9315;52.624;13.544;2023-05-10T14:25:42;67.82;46.35;77.10;;
18377;Laerm;9315;52.624;13.544;2023-05-10T14:28:09;68.87;47.48;85.46;;
18377;Laerm;9315;52.624;13.544;2023-05-10T14:30:37;68.43;49.34;79.19;;
18377;Laerm;9315;52.624;13.544;2023-05-10T14:33:10;68.35;53.14;79.93;;
18377;Laerm;9315;52.624;13.544;2023-05-10T14:35:37;66.82;48.07;74.53;;
18377;Laerm;9315;52.624;13.544;2023-05-10T14:38:05;66.27;48.61;76.74;;